Shin-oh Maru — JG5594 — position and weather

sailwx.info

Track history (hours):
 
Tides and Currents Weather Stations Pressure Air Temp Water Temp Dewpoint Dewpoint Depression Visibility Wind Speed Wind Dir Waves Ship Positions

Shin-oh Maru

Last reported at 2016-Dec-04 11:31 UTC. Time now 2016-Dec-04 12:21 UTC.
Position N 35°33' E 139°53'.

Length 161 m; draft 6.8 m.

Type: Cargo ship. MMSI: 431100859.

Date/timePositionNaut miles runAvg speedWind from/ knotsBaromVisibWave heightAir tempDewpointWater temp
2016-Dec-04 11:31N 35°33' E 139°53'0 0.0
2016-Dec-04 10:25N 35°33' E 139°53'0 0.0
2016-Dec-04 09:31N 35°33' E 139°53'0 0.1
2016-Dec-04 08:33N 35°33' E 139°53'1312.8
2016-Dec-04 07:33N 35°22' E 139°45'1212.3
2016-Dec-04 06:34N 35°10' E 139°46'  
2016-Dec-01 16:23N 34°53' E 139°46'1619.7
2016-Dec-01 15:33N 35°10' E 139°45'1413.6
2016-Dec-01 14:33N 35°23' E 139°42'1414.0
2016-Dec-01 13:33N 35°37' E 139°46'1 1.0
2016-Dec-01 12:29N 35°38' E 139°46'0 0.0
2016-Dec-01 11:29N 35°38' E 139°46'0 0.0
2016-Dec-01 10:32N 35°38' E 139°46'0 0.0
2016-Dec-01 09:32N 35°38' E 139°46'0 0.0
2016-Dec-01 08:32N 35°38' E 139°46'5 4.9
2016-Dec-01 07:33N 35°34' E 139°49'1414.1
2016-Dec-01 06:33N 35°20' E 139°44'1313.1
2016-Dec-01 05:33N 35°08' E 139°47'  
2016-Nov-28 16:10N 35°03' E 139°43'1118.6
2016-Nov-28 15:33N 35°14' E 139°46'1312.8
2016-Nov-28 14:33N 35°27' E 139°46'1110.9
2016-Nov-28 13:34N 35°38' E 139°46'0 0.0
2016-Nov-28 12:32N 35°38' E 139°46'0 0.0
2016-Nov-28 11:32N 35°38' E 139°46'0 0.0
2016-Nov-28 10:29N 35°38' E 139°46'0 0.0
2016-Nov-28 09:29N 35°38' E 139°46'0 0.0
2016-Nov-28 08:32N 35°38' E 139°46'0 0.0
2016-Nov-28 07:32N 35°38' E 139°46'0 0.0
2016-Nov-28 06:26N 35°38' E 139°46'0 0.0
2016-Nov-28 05:32N 35°38' E 139°46'0 0.0
2016-Nov-28 04:33N 35°38' E 139°46'8 8.2
2016-Nov-28 03:33N 35°33' E 139°54'0 0.1
2016-Nov-28 02:31N 35°33' E 139°54'0 0.0
2016-Nov-28 01:28N 35°33' E 139°54'0 0.0
2016-Nov-28 00:31N 35°33' E 139°54'0 0.0
2016-Nov-27 22:31N 35°33' E 139°54'0 0.0
2016-Nov-27 21:31N 35°33' E 139°54'0 0.0
2016-Nov-27 20:31N 35°33' E 139°54'0 0.0
2016-Nov-27 19:31N 35°33' E 139°54'0 0.0
2016-Nov-27 18:28N 35°33' E 139°54'0 0.0
2016-Nov-27 17:31N 35°33' E 139°54'0 0.1
2016-Nov-27 16:31N 35°33' E 139°54'0 0.1
2016-Nov-27 15:31N 35°33' E 139°54'0 0.0
2016-Nov-27 14:31N 35°33' E 139°54'0 0.0
2016-Nov-27 13:31N 35°33' E 139°54'0 0.0
2016-Nov-27 12:28N 35°33' E 139°54'0 0.0
2016-Nov-27 11:31N 35°33' E 139°54'0 0.0
2016-Nov-27 10:31N 35°33' E 139°54'0 0.0
2016-Nov-27 09:31N 35°33' E 139°54'7 7.5
2016-Nov-27 08:33N 35°27' E 139°50'1111.5
2016-Nov-27 07:33N 35°16' E 139°47'  
2016-Nov-24 16:27N 35°00' E 139°42'1617.8
2016-Nov-24 15:33N 35°16' E 139°46'1312.9
2016-Nov-24 14:33N 35°28' E 139°49'10 9.8
2016-Nov-24 13:33N 35°38' E 139°46'0 0.0
2016-Nov-24 12:33N 35°38' E 139°46'0 0.0
2016-Nov-24 11:33N 35°38' E 139°46'  
Track history (hours):
 
Tides and Currents Weather Stations Pressure Air Temp Water Temp Dewpoint Dewpoint Depression Visibility Wind Speed Wind Dir Waves Ship Positions

Shin-oh Maru

Last reported at 2016-Dec-04 11:31 UTC. Time now 2016-Dec-04 12:21 UTC.
Position N 35°33' E 139°53'.

Length 161 m; draft 6.8 m.

Type: Cargo ship. MMSI: 431100859.

Date/timePositionNaut miles runAvg speedWind from/ knotsBaromVisibWave heightAir tempDewpointWater temp
2016-Dec-04 11:31N 35°33' E 139°53'0 0.0
2016-Dec-04 10:25N 35°33' E 139°53'0 0.0
2016-Dec-04 09:31N 35°33' E 139°53'0 0.1
2016-Dec-04 08:33N 35°33' E 139°53'1312.8
2016-Dec-04 07:33N 35°22' E 139°45'1212.3
2016-Dec-04 06:34N 35°10' E 139°46'  
2016-Dec-01 16:23N 34°53' E 139°46'1619.7
2016-Dec-01 15:33N 35°10' E 139°45'1413.6
2016-Dec-01 14:33N 35°23' E 139°42'1414.0
2016-Dec-01 13:33N 35°37' E 139°46'1 1.0
2016-Dec-01 12:29N 35°38' E 139°46'0 0.0
2016-Dec-01 11:29N 35°38' E 139°46'0 0.0
2016-Dec-01 10:32N 35°38' E 139°46'0 0.0
2016-Dec-01 09:32N 35°38' E 139°46'0 0.0
2016-Dec-01 08:32N 35°38' E 139°46'5 4.9
2016-Dec-01 07:33N 35°34' E 139°49'1414.1
2016-Dec-01 06:33N 35°20' E 139°44'1313.1
2016-Dec-01 05:33N 35°08' E 139°47'  
2016-Nov-28 16:10N 35°03' E 139°43'1118.6
2016-Nov-28 15:33N 35°14' E 139°46'1312.8
2016-Nov-28 14:33N 35°27' E 139°46'1110.9
2016-Nov-28 13:34N 35°38' E 139°46'0 0.0
2016-Nov-28 12:32N 35°38' E 139°46'0 0.0
2016-Nov-28 11:32N 35°38' E 139°46'0 0.0
2016-Nov-28 10:29N 35°38' E 139°46'0 0.0
2016-Nov-28 09:29N 35°38' E 139°46'0 0.0
2016-Nov-28 08:32N 35°38' E 139°46'0 0.0
2016-Nov-28 07:32N 35°38' E 139°46'0 0.0
2016-Nov-28 06:26N 35°38' E 139°46'0 0.0
2016-Nov-28 05:32N 35°38' E 139°46'0 0.0
2016-Nov-28 04:33N 35°38' E 139°46'8 8.2
2016-Nov-28 03:33N 35°33' E 139°54'0 0.1
2016-Nov-28 02:31N 35°33' E 139°54'0 0.0
2016-Nov-28 01:28N 35°33' E 139°54'0 0.0
2016-Nov-28 00:31N 35°33' E 139°54'0 0.0
2016-Nov-27 22:31N 35°33' E 139°54'0 0.0
2016-Nov-27 21:31N 35°33' E 139°54'0 0.0
2016-Nov-27 20:31N 35°33' E 139°54'0 0.0
2016-Nov-27 19:31N 35°33' E 139°54'0 0.0
2016-Nov-27 18:28N 35°33' E 139°54'0 0.0
2016-Nov-27 17:31N 35°33' E 139°54'0 0.1
2016-Nov-27 16:31N 35°33' E 139°54'0 0.1
2016-Nov-27 15:31N 35°33' E 139°54'0 0.0
2016-Nov-27 14:31N 35°33' E 139°54'0 0.0
2016-Nov-27 13:31N 35°33' E 139°54'0 0.0
2016-Nov-27 12:28N 35°33' E 139°54'0 0.0
2016-Nov-27 11:31N 35°33' E 139°54'0 0.0
2016-Nov-27 10:31N 35°33' E 139°54'0 0.0
2016-Nov-27 09:31N 35°33' E 139°54'7 7.5
2016-Nov-27 08:33N 35°27' E 139°50'1111.5
2016-Nov-27 07:33N 35°16' E 139°47'  
2016-Nov-24 16:27N 35°00' E 139°42'1617.8
2016-Nov-24 15:33N 35°16' E 139°46'1312.9
2016-Nov-24 14:33N 35°28' E 139°49'10 9.8
2016-Nov-24 13:33N 35°38' E 139°46'0 0.0
2016-Nov-24 12:33N 35°38' E 139°46'0 0.0
2016-Nov-24 11:33N 35°38' E 139°46'  

Dump ship's entire track history